createdAt,value
2023-02-01T00:01:24.940Z,2.40
2023-02-01T00:03:52.276Z,2.40
2023-02-01T00:06:19.694Z,3.05
2023-02-01T00:08:46.920Z,2.70
2023-02-01T00:11:14.355Z,2.45
2023-02-01T00:13:42.490Z,3.08
2023-02-01T00:16:09.688Z,3.03
2023-02-01T00:18:37.174Z,2.65
2023-02-01T00:21:04.386Z,2.63
2023-02-01T00:23:34.111Z,2.70
2023-02-01T00:26:05.373Z,2.83
2023-02-01T00:28:32.894Z,2.63
2023-02-01T00:31:01.868Z,2.20
2023-02-01T00:33:30.035Z,2.42
2023-02-01T00:36:04.575Z,2.47
2023-02-01T00:38:32.112Z,2.67
2023-02-01T00:41:06.152Z,2.50
2023-02-01T00:43:33.769Z,2.63
2023-02-01T00:46:01.056Z,2.40
2023-02-01T00:48:28.591Z,2.67
2023-02-01T00:50:55.722Z,2.20
2023-02-01T00:53:22.877Z,2.58
2023-02-01T00:55:50.177Z,2.60
2023-02-01T00:58:17.937Z,3.13
2023-02-01T01:00:45.173Z,3.13
2023-02-01T01:03:21.395Z,2.50
2023-02-01T01:05:49.300Z,2.80
2023-02-01T01:08:17.970Z,2.78
2023-02-01T01:10:45.382Z,3.10
2023-02-01T01:13:12.530Z,3.33
2023-02-01T01:15:40.754Z,2.78
2023-02-01T01:18:08.405Z,3.25
2023-02-01T01:20:36.735Z,3.20
2023-02-01T01:23:04.487Z,4.00
2023-02-01T01:25:31.860Z,3.95
2023-02-01T01:27:59.254Z,3.22
2023-02-01T01:30:26.496Z,3.20
2023-02-01T01:32:54.001Z,3.72
2023-02-01T01:35:21.160Z,3.28
2023-02-01T01:37:48.401Z,4.45
2023-02-01T01:40:15.670Z,3.72
2023-02-01T01:42:43.975Z,3.80
2023-02-01T01:45:13.975Z,3.40
2023-02-01T01:47:43.534Z,3.20
2023-02-01T01:50:12.303Z,3.80
2023-02-01T01:52:39.965Z,3.83
2023-02-01T01:55:07.283Z,3.80
2023-02-01T01:57:39.672Z,3.97
2023-02-01T02:00:08.227Z,3.92
2023-02-01T02:02:36.567Z,3.97
2023-02-01T02:05:04.034Z,3.88
2023-02-01T02:07:33.315Z,4.15
2023-02-01T02:10:01.589Z,4.43
2023-02-01T02:12:29.353Z,4.93
2023-02-01T02:14:56.631Z,4.20
2023-02-01T02:17:23.767Z,5.03
2023-02-01T02:19:57.208Z,4.20
2023-02-01T02:22:43.221Z,4.28
2023-02-01T02:25:29.316Z,4.10
2023-02-01T02:28:15.425Z,5.38
2023-02-01T02:31:02.884Z,4.63
2023-02-01T02:33:38.176Z,4.10
2023-02-01T02:36:11.391Z,4.68
2023-02-01T02:38:45.051Z,4.32
2023-02-01T02:41:35.271Z,4.68
2023-02-01T02:44:26.689Z,4.35
2023-02-01T02:47:13.405Z,3.97
2023-02-01T02:49:43.297Z,4.50
2023-02-01T02:52:34.222Z,4.70
2023-02-01T02:55:02.408Z,4.38
2023-02-01T02:57:50.710Z,3.80
2023-02-01T03:00:38.288Z,5.15
2023-02-01T03:03:24.574Z,3.65
2023-02-01T03:05:52.022Z,4.00
2023-02-01T03:08:26.589Z,3.88
2023-02-01T03:10:56.899Z,3.97
2023-02-01T03:13:24.029Z,3.92
2023-02-01T03:15:51.338Z,3.63
2023-02-01T03:18:20.749Z,4.13
2023-02-01T03:20:50.110Z,4.30
2023-02-01T03:23:18.769Z,3.70
2023-02-01T03:25:46.184Z,4.30
2023-02-01T03:28:13.451Z,3.58
2023-02-01T03:30:43.155Z,3.97
2023-02-01T03:33:22.062Z,3.85
2023-02-01T03:35:55.336Z,3.80
2023-02-01T03:38:24.411Z,3.63
2023-02-01T03:41:12.139Z,3.70
2023-02-01T03:43:44.250Z,3.67
2023-02-01T03:46:14.250Z,3.85
2023-02-01T03:48:42.241Z,3.72
2023-02-01T03:51:10.060Z,3.33
2023-02-01T03:53:37.985Z,3.97
2023-02-01T03:56:05.690Z,3.60
2023-02-01T03:58:32.905Z,3.60
2023-02-01T04:01:00.778Z,3.67
2023-02-01T04:03:28.581Z,3.58
2023-02-01T04:05:56.114Z,3.47
2023-02-01T04:08:23.487Z,3.42
2023-02-01T04:10:50.641Z,3.97
2023-02-01T04:13:18.495Z,3.28
2023-02-01T04:15:46.762Z,3.55
2023-02-01T04:18:13.968Z,3.35
2023-02-01T04:20:41.154Z,3.38
2023-02-01T04:23:08.296Z,3.75
2023-02-01T04:25:35.475Z,3.60
2023-02-01T04:28:02.617Z,3.17
2023-02-01T04:30:30.339Z,3.22
2023-02-01T04:32:57.556Z,3.70
2023-02-01T04:35:24.726Z,3.50
2023-02-01T04:37:51.889Z,3.35
2023-02-01T04:40:19.062Z,3.50
2023-02-01T04:42:46.248Z,3.47
2023-02-01T04:45:14.055Z,3.75
2023-02-01T04:47:41.277Z,3.22
2023-02-01T04:50:11.205Z,3.40
2023-02-01T04:52:38.776Z,3.38
2023-02-01T04:55:06.200Z,3.33
2023-02-01T04:57:33.512Z,3.60
2023-02-01T05:00:00.722Z,3.35
2023-02-01T05:02:27.878Z,3.83
2023-02-01T05:04:56.971Z,3.78
2023-02-01T05:07:24.180Z,3.55
2023-02-01T05:09:51.860Z,3.30
2023-02-01T05:12:37.654Z,4.07
2023-02-01T05:15:05.004Z,3.70
2023-02-01T05:17:32.271Z,3.90
2023-02-01T05:19:59.379Z,3.75
2023-02-01T05:22:26.630Z,3.97
2023-02-01T05:24:53.822Z,4.47
2023-02-01T05:27:20.991Z,4.28
2023-02-01T05:29:48.130Z,3.70
2023-02-01T05:32:22.211Z,4.30
2023-02-01T05:34:50.261Z,4.22
2023-02-01T05:37:17.745Z,4.13
2023-02-01T05:39:44.947Z,4.10
2023-02-01T05:42:12.104Z,4.25
2023-02-01T05:44:39.234Z,4.30
2023-02-01T05:47:06.463Z,4.68
2023-02-01T05:49:33.608Z,4.30
2023-02-01T05:52:01.021Z,3.88
2023-02-01T05:54:28.274Z,3.83
2023-02-01T05:56:55.669Z,4.30
2023-02-01T05:59:22.846Z,4.30
2023-02-01T06:01:50.047Z,3.70
2023-02-01T06:04:17.226Z,3.90
2023-02-01T06:06:44.386Z,4.13
2023-02-01T06:09:11.556Z,4.20
2023-02-01T06:11:38.676Z,4.05
2023-02-01T06:14:05.921Z,4.10
2023-02-01T06:16:33.646Z,4.47
2023-02-01T06:19:00.859Z,3.72
2023-02-01T06:21:27.999Z,4.70
2023-02-01T06:23:55.819Z,4.28
2023-02-01T06:26:23.351Z,4.30
2023-02-01T06:28:50.942Z,3.80
2023-02-01T06:31:18.224Z,4.00
2023-02-01T06:33:46.816Z,4.47
2023-02-01T06:36:14.391Z,3.85
2023-02-01T06:38:41.518Z,3.80
2023-02-01T06:41:08.888Z,4.03
2023-02-01T06:43:36.253Z,3.97
2023-02-01T06:46:04.488Z,3.88
2023-02-01T06:48:32.246Z,3.90
2023-02-01T06:50:59.665Z,3.90
2023-02-01T06:53:27.425Z,3.65
2023-02-01T06:56:01.933Z,3.63
2023-02-01T06:58:32.692Z,3.75
2023-02-01T07:01:00.467Z,3.40
2023-02-01T07:03:27.670Z,3.45
2023-02-01T07:06:01.593Z,3.80
2023-02-01T07:08:29.520Z,3.70
2023-02-01T07:10:56.743Z,3.85
2023-02-01T07:13:23.909Z,3.53
2023-02-01T07:15:51.101Z,3.90
2023-02-01T07:18:18.258Z,3.55
2023-02-01T07:20:51.174Z,3.45
2023-02-01T07:23:18.318Z,3.63
2023-02-01T07:25:45.484Z,3.95
2023-02-01T07:28:12.685Z,3.45
2023-02-01T07:30:39.962Z,3.35
2023-02-01T07:33:08.328Z,2.83
2023-02-01T07:35:36.138Z,3.20
2023-02-01T07:38:03.320Z,3.60
2023-02-01T07:40:31.361Z,3.05
2023-02-01T07:42:58.697Z,3.30
2023-02-01T07:45:25.879Z,2.80
2023-02-01T07:47:54.254Z,3.17
2023-02-01T07:50:21.566Z,2.90
2023-02-01T07:52:48.872Z,3.17
2023-02-01T07:55:16.140Z,2.30
2023-02-01T07:57:43.379Z,2.53
2023-02-01T08:00:29.736Z,2.80
2023-02-01T08:02:59.100Z,2.50
2023-02-01T08:05:26.345Z,2.90
2023-02-01T08:07:53.511Z,2.42
2023-02-01T08:10:21.551Z,2.55
2023-02-01T08:12:49.854Z,3.10
2023-02-01T08:15:17.312Z,2.42
2023-02-01T08:17:48.204Z,2.53
2023-02-01T08:20:15.446Z,2.40
2023-02-01T08:22:42.745Z,2.50
2023-02-01T08:25:10.026Z,2.55
2023-02-01T08:27:37.809Z,2.30
2023-02-01T08:30:05.884Z,2.78
2023-02-01T08:32:33.123Z,2.20
2023-02-01T08:35:00.271Z,2.50
2023-02-01T08:37:27.451Z,3.22
2023-02-01T08:39:54.623Z,7.18
2023-02-01T08:42:40.655Z,4.15
2023-02-01T08:45:08.892Z,2.38
2023-02-01T08:47:36.820Z,2.55
2023-02-01T08:50:04.648Z,2.85
2023-02-01T08:52:31.902Z,2.40
2023-02-01T08:54:59.115Z,2.25
2023-02-01T08:57:26.280Z,2.58
2023-02-01T08:59:53.454Z,2.40
2023-02-01T09:02:20.603Z,2.40
2023-02-01T09:04:47.727Z,2.17
2023-02-01T09:07:14.946Z,2.10
2023-02-01T09:09:42.330Z,2.33
2023-02-01T09:12:09.646Z,2.30
2023-02-01T09:14:36.925Z,3.60
2023-02-01T09:17:04.116Z,2.63
2023-02-01T09:19:31.292Z,2.53
2023-02-01T09:21:58.754Z,2.60
2023-02-01T09:24:25.991Z,2.45
2023-02-01T09:26:53.601Z,2.22
2023-02-01T09:29:20.921Z,2.28
2023-02-01T09:31:57.701Z,1.95
2023-02-01T09:34:30.757Z,2.53
2023-02-01T09:36:57.888Z,2.15
2023-02-01T09:39:25.203Z,2.13
2023-02-01T09:41:57.237Z,2.10
2023-02-01T09:44:27.670Z,2.35
2023-02-01T09:46:57.957Z,2.17
2023-02-01T09:49:28.881Z,2.20
2023-02-01T09:51:58.142Z,2.40
2023-02-01T09:54:26.871Z,2.13
2023-02-01T09:56:59.209Z,2.30
2023-02-01T09:59:35.724Z,2.42
2023-02-01T10:02:03.653Z,2.33
2023-02-01T10:04:31.165Z,2.20
2023-02-01T10:07:07.413Z,2.65
2023-02-01T10:09:49.863Z,3.42
2023-02-01T10:12:20.055Z,2.65
2023-02-01T10:15:05.835Z,2.20
2023-02-01T10:17:44.842Z,2.30
2023-02-01T10:20:12.109Z,2.50
2023-02-01T10:25:54.197Z,2.60
2023-02-01T10:28:22.907Z,2.45
2023-02-01T10:30:50.752Z,2.10
2023-02-01T10:33:18.328Z,2.45
2023-02-01T10:35:46.480Z,2.65
2023-02-01T10:38:20.451Z,2.30
2023-02-01T10:40:47.992Z,2.22
2023-02-01T10:43:15.156Z,2.30
2023-02-01T10:45:43.476Z,2.10
2023-02-01T10:48:10.956Z,2.10
2023-02-01T10:50:44.964Z,2.45
2023-02-01T10:53:18.910Z,2.33
2023-02-01T10:55:50.809Z,2.08
2023-02-01T10:58:23.080Z,2.53
2023-02-01T11:00:50.285Z,2.30
2023-02-01T11:03:32.233Z,2.60
2023-02-01T11:05:59.493Z,2.80
2023-02-01T11:08:26.783Z,3.15
2023-02-01T11:11:02.426Z,2.40
2023-02-01T11:13:31.881Z,2.67
2023-02-01T11:15:59.239Z,2.55
2023-02-01T11:18:28.351Z,2.70
2023-02-01T11:20:56.606Z,2.47
2023-02-01T11:23:25.314Z,2.72
2023-02-01T11:25:53.908Z,2.80
2023-02-01T11:28:23.068Z,2.80
2023-02-01T11:30:50.535Z,3.15
2023-02-01T11:33:20.361Z,2.55
2023-02-01T11:35:49.122Z,3.15
2023-02-01T11:38:24.116Z,2.60
2023-02-01T11:43:21.202Z,3.13
2023-02-01T11:46:17.711Z,3.00
2023-02-01T11:48:44.865Z,2.58
2023-02-01T11:51:15.057Z,2.65
2023-02-01T11:53:42.159Z,2.72
2023-02-01T11:56:09.381Z,2.90
2023-02-01T11:58:54.955Z,2.95
2023-02-01T12:01:35.415Z,3.20
2023-02-01T12:04:15.129Z,2.70
2023-02-01T12:06:42.316Z,3.03
2023-02-01T12:09:15.521Z,3.03
2023-02-01T12:11:46.114Z,2.85
2023-02-01T12:14:18.757Z,3.17
2023-02-01T12:16:52.523Z,3.00
2023-02-01T12:19:19.638Z,3.30
2023-02-01T12:21:55.079Z,3.42
2023-02-01T12:24:25.238Z,2.97
2023-02-01T12:27:03.895Z,3.30
2023-02-01T12:29:45.730Z,2.92
2023-02-01T12:32:18.975Z,2.88
2023-02-01T12:34:49.034Z,2.67
2023-02-01T12:37:19.410Z,2.83
2023-02-01T12:40:09.554Z,2.40
2023-02-01T12:42:42.781Z,2.72
2023-02-01T12:45:12.656Z,2.90
2023-02-01T12:47:51.021Z,3.47
2023-02-01T12:50:33.991Z,2.53
2023-02-01T12:53:24.913Z,2.70
2023-02-01T12:55:54.203Z,3.30
2023-02-01T12:58:24.631Z,3.25
2023-02-01T13:00:54.711Z,2.63
2023-02-01T13:03:38.690Z,2.45
2023-02-01T13:06:19.293Z,2.20
2023-02-01T13:08:50.177Z,2.83
2023-02-01T13:11:20.346Z,2.53
2023-02-01T13:13:47.500Z,2.40
2023-02-01T13:16:25.452Z,2.55
2023-02-01T13:18:53.782Z,2.53
2023-02-01T13:21:27.232Z,2.42
2023-02-01T13:23:54.974Z,2.70
2023-02-01T13:26:22.128Z,2.42
2023-02-01T13:28:51.151Z,2.50
2023-02-01T13:31:21.405Z,2.38
2023-02-01T13:34:01.496Z,2.67
2023-02-01T13:36:40.630Z,2.67
2023-02-01T13:39:21.223Z,2.88
2023-02-01T13:42:06.149Z,2.65
2023-02-01T13:44:40.086Z,2.72
2023-02-01T13:47:14.816Z,2.92
2023-02-01T13:49:42.151Z,2.90
2023-02-01T13:52:23.088Z,2.80
2023-02-01T13:54:50.245Z,2.85
2023-02-01T13:57:32.449Z,3.03
2023-02-01T14:00:08.558Z,3.22
2023-02-01T14:02:47.511Z,2.97
2023-02-01T14:05:34.933Z,3.33
2023-02-01T14:08:08.761Z,2.92
2023-02-01T14:10:56.747Z,2.60
2023-02-01T14:13:27.034Z,2.50
2023-02-01T14:16:10.161Z,2.72
2023-02-01T14:18:38.382Z,2.80
2023-02-01T14:21:24.471Z,2.70
2023-02-01T14:23:54.756Z,2.40
2023-02-01T14:26:42.093Z,2.38
2023-02-01T14:29:22.043Z,5.85
2023-02-01T14:31:49.506Z,2.92
2023-02-01T14:34:21.902Z,2.78
2023-02-01T14:36:54.423Z,3.30
2023-02-01T14:39:27.870Z,2.33
2023-02-01T14:41:59.689Z,2.08
2023-02-01T14:44:31.558Z,2.80
2023-02-01T14:47:05.834Z,3.17
2023-02-01T14:49:34.813Z,2.80
2023-02-01T14:52:04.033Z,2.78
2023-02-01T14:54:31.253Z,2.50
2023-02-01T14:56:59.556Z,2.20
2023-02-01T14:59:27.266Z,2.15
2023-02-01T15:01:58.014Z,2.60
2023-02-01T15:04:26.459Z,3.08
2023-02-01T15:06:55.102Z,2.50
2023-02-01T15:09:30.057Z,2.53
2023-02-01T15:14:25.368Z,3.60
2023-02-01T15:16:54.802Z,2.83
2023-02-01T15:19:23.404Z,2.83
2023-02-01T15:21:52.705Z,3.40
2023-02-01T15:24:26.846Z,2.45
2023-02-01T15:26:55.199Z,2.67
2023-02-01T15:29:23.875Z,2.63
2023-02-01T15:31:52.626Z,2.30
2023-02-01T15:34:20.716Z,3.30
2023-02-01T15:37:01.928Z,2.95
2023-02-01T15:39:32.719Z,3.47
2023-02-01T15:42:03.106Z,2.58
2023-02-01T15:44:41.440Z,2.17
2023-02-01T15:47:17.439Z,1.88
2023-02-01T15:49:46.721Z,2.10
2023-02-01T15:52:26.017Z,2.53
2023-02-01T15:54:55.399Z,2.95
2023-02-01T15:57:33.635Z,2.25
2023-02-01T16:00:06.099Z,3.20
2023-02-01T16:02:39.866Z,2.75
2023-02-01T16:05:26.421Z,2.65
2023-02-01T16:08:13.600Z,2.88
2023-02-01T16:10:42.505Z,2.70
2023-02-01T16:13:10.096Z,2.60
2023-02-01T16:15:37.619Z,2.28
2023-02-01T16:18:05.227Z,1.85
2023-02-01T16:20:34.070Z,1.90
2023-02-01T16:23:01.280Z,2.00
2023-02-01T16:25:28.489Z,2.25
2023-02-01T16:27:55.828Z,2.70
2023-02-01T16:30:25.229Z,1.83
2023-02-01T16:32:59.086Z,2.10
2023-02-01T16:35:28.066Z,2.00
2023-02-01T16:37:55.679Z,2.03
2023-02-01T16:40:23.000Z,2.47
2023-02-01T16:42:51.727Z,2.28
2023-02-01T16:45:18.876Z,1.98
2023-02-01T16:47:52.365Z,2.60
2023-02-01T16:50:23.794Z,2.40
2023-02-01T16:52:51.804Z,2.30
2023-02-01T16:55:20.687Z,2.20
2023-02-01T16:57:48.064Z,2.22
2023-02-01T17:00:24.655Z,3.15
2023-02-01T17:02:52.944Z,2.13
2023-02-01T17:05:20.141Z,1.90
2023-02-01T17:07:47.425Z,2.47
2023-02-01T17:10:34.015Z,1.83
2023-02-01T17:13:01.933Z,2.10
2023-02-01T17:15:31.026Z,2.00
2023-02-01T17:17:59.903Z,2.00
2023-02-01T17:20:28.462Z,1.80
2023-02-01T17:22:55.657Z,1.95
2023-02-01T17:25:23.647Z,1.80
2023-02-01T17:27:51.146Z,2.10
2023-02-01T17:30:18.924Z,2.00
2023-02-01T17:32:46.162Z,2.10
2023-02-01T17:35:24.210Z,1.85
2023-02-01T17:37:52.485Z,2.00
2023-02-01T17:40:20.200Z,1.90
2023-02-01T17:42:47.396Z,2.20
2023-02-01T17:45:34.156Z,2.13
2023-02-01T17:48:01.729Z,1.88
2023-02-01T17:50:31.689Z,2.20
2023-02-01T17:52:58.940Z,2.65
2023-02-01T17:55:26.947Z,2.30
2023-02-01T17:57:54.211Z,2.08
2023-02-01T18:00:22.069Z,2.40
2023-02-01T18:02:49.305Z,2.28
2023-02-01T18:05:22.632Z,1.83
2023-02-01T18:07:49.998Z,1.95
2023-02-01T18:10:17.354Z,1.90
2023-02-01T18:12:44.821Z,1.88
2023-02-01T18:15:19.881Z,1.98
2023-02-01T18:17:47.289Z,2.00
2023-02-01T18:20:15.953Z,2.20
2023-02-01T18:22:43.688Z,2.47
2023-02-01T18:25:18.344Z,2.42
2023-02-01T18:27:45.489Z,1.73
2023-02-01T18:30:13.154Z,1.65
2023-02-01T18:32:40.890Z,1.98
2023-02-01T18:35:23.598Z,2.78
2023-02-01T18:37:51.559Z,2.25
2023-02-01T18:40:20.522Z,2.10
2023-02-01T18:42:47.989Z,1.77
2023-02-01T18:45:35.390Z,2.28
2023-02-01T18:48:02.911Z,2.90
2023-02-01T18:50:30.679Z,2.00
2023-02-01T18:52:58.941Z,2.08
2023-02-01T18:55:26.933Z,2.60
2023-02-01T18:57:54.255Z,2.15
2023-02-01T19:00:22.819Z,2.00
2023-02-01T19:02:50.393Z,2.13
2023-02-01T19:05:18.145Z,2.83
2023-02-01T19:07:46.018Z,1.75
2023-02-01T19:10:14.778Z,1.80
2023-02-01T19:12:42.955Z,1.75
2023-02-01T19:15:15.936Z,2.03
2023-02-01T19:17:44.346Z,1.88
2023-02-01T19:20:12.530Z,2.55
2023-02-01T19:22:40.999Z,2.20
2023-02-01T19:25:14.000Z,2.00
2023-02-01T19:27:41.217Z,2.00
2023-02-01T19:30:10.488Z,2.30
2023-02-01T19:32:39.375Z,1.70
2023-02-01T19:35:07.390Z,1.77
2023-02-01T19:37:34.696Z,2.38
2023-02-01T19:40:01.889Z,1.80
2023-02-01T19:42:30.074Z,1.77
2023-02-01T19:44:57.283Z,2.10
2023-02-01T19:47:24.462Z,2.50
2023-02-01T19:49:51.610Z,2.08
2023-02-01T19:52:18.755Z,1.77
2023-02-01T19:54:46.037Z,1.98
2023-02-01T19:57:13.513Z,1.85
2023-02-01T19:59:40.696Z,1.90
2023-02-01T20:02:07.410Z,2.38
2023-02-01T20:04:34.589Z,1.77
2023-02-01T20:07:02.146Z,2.60
2023-02-01T20:09:29.673Z,1.63
2023-02-01T20:11:56.879Z,1.88
2023-02-01T20:14:26.016Z,2.15
2023-02-01T20:16:53.212Z,2.25
2023-02-01T20:19:20.403Z,1.73
2023-02-01T20:21:47.794Z,1.80
2023-02-01T20:24:17.217Z,2.10
2023-02-01T20:26:45.962Z,2.03
2023-02-01T20:29:13.685Z,2.05
2023-02-01T20:31:41.098Z,1.60
2023-02-01T20:34:08.596Z,2.75
2023-02-01T20:36:35.809Z,2.40
2023-02-01T20:39:03.007Z,1.98
2023-02-01T20:41:30.220Z,1.60
2023-02-01T20:43:57.439Z,2.40
2023-02-01T20:46:24.812Z,1.85
2023-02-01T20:48:52.335Z,1.80
2023-02-01T20:51:20.353Z,1.98
2023-02-01T20:53:48.580Z,2.45
2023-02-01T20:56:16.403Z,2.33
2023-02-01T20:58:43.952Z,1.83
2023-02-01T21:01:11.853Z,1.73
2023-02-01T21:03:39.350Z,2.00
2023-02-01T21:06:07.411Z,1.80
2023-02-01T21:08:34.801Z,2.20
2023-02-01T21:11:07.336Z,1.88
2023-02-01T21:13:36.793Z,1.90
2023-02-01T21:16:05.014Z,2.08
2023-02-01T21:18:32.217Z,1.95
2023-02-01T21:21:05.040Z,1.80
2023-02-01T21:23:32.189Z,1.85
2023-02-01T21:26:03.030Z,1.80
2023-02-01T21:28:30.180Z,1.80
2023-02-01T21:30:57.572Z,2.03
2023-02-01T21:33:24.770Z,1.77
2023-02-01T21:35:52.442Z,1.73
2023-02-01T21:38:19.700Z,1.70
2023-02-01T21:41:06.786Z,1.80
2023-02-01T21:43:34.033Z,1.75
2023-02-01T21:46:01.197Z,1.92
2023-02-01T21:48:28.359Z,2.38
2023-02-01T21:50:57.020Z,2.30
2023-02-01T21:53:24.578Z,1.63
2023-02-01T21:55:51.798Z,1.95
2023-02-01T21:58:18.910Z,2.03
2023-02-01T22:00:47.420Z,1.98
2023-02-01T22:03:14.906Z,2.10
2023-02-01T22:05:42.131Z,1.98
2023-02-01T22:08:09.410Z,1.90
2023-02-01T22:10:39.041Z,1.75
2023-02-01T22:13:06.889Z,1.80
2023-02-01T22:15:34.033Z,1.90
2023-02-01T22:18:01.227Z,1.98
2023-02-01T22:20:28.801Z,1.55
2023-02-01T22:22:56.680Z,1.67
2023-02-01T22:25:24.936Z,1.85
2023-02-01T22:28:32.184Z,1.63
2023-02-01T22:30:39.630Z,2.03
2023-02-01T22:33:06.827Z,1.55
2023-02-01T22:35:34.117Z,1.67
2023-02-01T22:38:01.354Z,1.83
2023-02-01T22:40:28.511Z,2.75
2023-02-01T22:42:55.653Z,2.10
2023-02-01T22:45:23.139Z,1.80
2023-02-01T22:47:50.495Z,1.75
2023-02-01T22:50:17.804Z,2.50
2023-02-01T22:52:45.069Z,1.73
2023-02-01T22:55:12.271Z,2.05
2023-02-01T22:57:39.533Z,1.65
2023-02-01T23:00:07.576Z,1.85
2023-02-01T23:02:34.711Z,2.08
2023-02-01T23:05:01.830Z,1.95
2023-02-01T23:07:28.978Z,1.50
2023-02-01T23:09:56.081Z,1.23
2023-02-01T23:12:23.238Z,1.70
2023-02-01T23:15:08.525Z,1.95
2023-02-01T23:20:04.182Z,1.35
2023-02-01T23:22:31.336Z,1.75
2023-02-01T23:24:58.543Z,2.00
2023-02-01T23:27:27.128Z,1.80
2023-02-01T23:29:54.781Z,2.05
2023-02-01T23:32:21.917Z,1.50
2023-02-01T23:34:49.094Z,1.70
2023-02-01T23:37:16.232Z,2.05
2023-02-01T23:39:43.408Z,1.88
2023-02-01T23:42:10.597Z,1.55
2023-02-01T23:44:37.712Z,1.63
2023-02-01T23:47:04.847Z,1.65
2023-02-01T23:49:31.993Z,1.60
2023-02-01T23:51:59.246Z,1.80
2023-02-01T23:54:26.364Z,1.67
2023-02-01T23:56:53.520Z,1.83
2023-02-01T23:59:22.808Z,1.30
